Time;durP1;ratioP1;P1;durP2;ratioP2;P2;SDS_P1;SDS_P2;PMS_P1;PMS_P2;Temp;Humidity;BMP_temperature;BMP_pressure;BME280_temperature;BME280_humidity;BME280_pressure;Samples;Min_cycle;Max_cycle;Signal;HPM_P1;HPM_P2
2023/03/20 00:00:32;;;;;;;16.15;14.45;;;10.50;99.90;;;;;;5042769;28;20230;-79
2023/03/20 00:03:01;;;;;;;15.63;14.10;;;10.50;99.90;;;;;;5039861;28;20749;-77
2023/03/20 00:05:29;;;;;;;15.18;13.57;;;10.50;99.90;;;;;;5042938;28;20226;-78
2023/03/20 00:07:57;;;;;;;13.13;11.82;;;10.40;99.90;;;;;;5042443;28;20716;-77
2023/03/20 00:10:30;;;;;;;14.05;12.75;;;10.40;99.90;;;;;;5037839;28;20203;-79
2023/03/20 00:12:57;;;;;;;15.00;13.50;;;10.40;99.90;;;;;;5038807;28;20257;-76
2023/03/20 00:15:30;;;;;;;15.27;13.77;;;10.40;99.90;;;;;;5041319;28;20195;-76
2023/03/20 00:17:58;;;;;;;13.93;12.60;;;10.30;99.90;;;;;;5038455;28;20696;-78
2023/03/20 00:20:26;;;;;;;14.93;13.45;;;10.20;99.90;;;;;;5040201;28;20733;-76
2023/03/20 00:22:54;;;;;;;13.68;12.40;;;10.20;99.90;;;;;;5039335;28;20211;-78
2023/03/20 00:25:24;;;;;;;14.63;12.98;;;10.10;99.90;;;;;;5039389;28;20206;-77
2023/03/20 00:27:52;;;;;;;14.90;13.40;;;10.10;99.90;;;;;;5035923;28;20254;-76
2023/03/20 00:30:22;;;;;;;14.13;12.73;;;10.20;99.90;;;;;;5037576;28;20261;-78
2023/03/20 00:32:50;;;;;;;13.50;12.20;;;10.10;99.90;;;;;;5038255;28;20696;-76
2023/03/20 00:35:24;;;;;;;14.15;12.77;;;10.10;99.90;;;;;;5036264;28;20297;-76
2023/03/20 00:37:52;;;;;;;14.75;13.35;;;10.10;99.90;;;;;;5039273;28;21005;-77
2023/03/20 00:40:20;;;;;;;12.77;11.57;;;10.10;99.90;;;;;;5040519;28;20318;-79
2023/03/20 00:42:51;;;;;;;15.57;13.90;;;10.10;99.90;;;;;;5046428;28;20199;-78
2023/03/20 00:45:21;;;;;;;16.10;14.18;;;10.00;99.90;;;;;;5058675;28;20305;-78
2023/03/20 00:47:50;;;;;;;15.00;13.50;;;9.90;99.90;;;;;;5037532;28;20334;-81
2023/03/20 00:50:20;;;;;;;13.80;12.50;;;9.90;99.90;;;;;;5034667;28;21252;-77
2023/03/20 00:52:48;;;;;;;14.93;13.48;;;9.80;99.90;;;;;;5041193;28;20202;-79
2023/03/20 00:55:17;;;;;;;13.85;12.52;;;9.80;99.90;;;;;;5037772;28;20218;-78
2023/03/20 00:57:48;;;;;;;14.30;12.90;;;9.80;99.90;;;;;;5042166;28;20219;-79
2023/03/20 01:00:26;;;;;;;13.63;12.32;;;9.90;99.90;;;;;;5037764;28;20277;-77
2023/03/20 01:02:56;;;;;;;14.38;12.95;;;9.90;99.90;;;;;;5037775;28;20721;-76
2023/03/20 01:05:24;;;;;;;15.80;14.10;;;9.90;99.90;;;;;;5039167;28;20222;-76
2023/03/20 01:07:51;;;;;;;14.90;13.40;;;9.90;99.90;;;;;;5038087;28;20280;-78
2023/03/20 01:10:19;;;;;;;15.40;13.93;;;9.80;99.90;;;;;;5038422;28;20226;-77
2023/03/20 01:12:47;;;;;;;16.20;14.50;;;9.70;99.90;;;;;;5040707;28;20622;-78
2023/03/20 01:15:21;;;;;;;16.73;14.95;;;9.70;99.90;;;;;;5037272;28;20253;-76
2023/03/20 01:17:48;;;;;;;14.13;12.82;;;9.60;99.90;;;;;;5039233;28;20308;-78
2023/03/20 01:20:18;;;;;;;14.95;13.45;;;9.60;99.90;;;;;;5039457;28;20238;-79
2023/03/20 01:22:45;;;;;;;17.17;14.38;;;9.60;99.90;;;;;;5038814;28;20211;-77
2023/03/20 01:25:13;;;;;;;15.35;13.82;;;9.60;99.90;;;;;;5038244;28;20227;-77
2023/03/20 01:27:49;;;;;;;15.95;14.43;;;9.60;99.90;;;;;;5033271;28;20223;-76
2023/03/20 01:30:23;;;;;;;15.52;14.02;;;9.60;99.90;;;;;;5038008;28;20278;-84
2023/03/20 01:32:51;;;;;;;16.90;15.20;;;9.40;99.90;;;;;;5037939;28;20306;-78
2023/03/20 01:35:20;;;;;;;16.38;14.68;;;9.40;99.90;;;;;;5038647;28;20674;-78
2023/03/20 01:37:48;;;;;;;19.75;17.48;;;9.30;99.90;;;;;;5038801;28;20223;-77
2023/03/20 01:40:42;;;;;;;18.58;16.50;;;9.30;99.90;;;;;;5038085;28;20341;-79
2023/03/20 01:43:15;;;;;;;17.50;15.75;;;9.20;99.90;;;;;;5028152;28;20233;-81
2023/03/20 01:45:51;;;;;;;16.02;14.43;;;9.20;99.90;;;;;;5037953;28;20202;-79
2023/03/20 01:48:19;;;;;;;19.10;16.52;;;9.20;99.90;;;;;;5039681;28;20346;-76
2023/03/20 01:50:46;;;;;;;17.73;15.80;;;9.20;99.90;;;;;;5041147;28;20226;-77
2023/03/20 01:53:17;;;;;;;18.05;16.20;;;9.20;99.90;;;;;;5041241;28;20206;-77
2023/03/20 01:55:46;;;;;;;17.20;15.48;;;9.20;99.90;;;;;;5038223;28;20684;-77
2023/03/20 01:58:19;;;;;;;19.92;17.92;;;9.10;99.90;;;;;;5039262;28;20241;-78
2023/03/20 02:00:48;;;;;;;17.05;15.35;;;9.10;99.90;;;;;;5037923;28;20218;-78
2023/03/20 02:03:16;;;;;;;19.33;17.48;;;9.10;99.90;;;;;;5039660;28;20974;-76
2023/03/20 02:05:44;;;;;;;16.50;14.90;;;9.10;99.90;;;;;;5041030;28;20195;-77
2023/03/20 02:08:22;;;;;;;18.50;16.65;;;9.00;99.90;;;;;;5041055;28;20276;-78
2023/03/20 02:10:49;;;;;;;18.65;16.73;;;9.00;99.90;;;;;;5032315;28;20832;-77
2023/03/20 02:13:18;;;;;;;21.52;19.23;;;8.90;99.90;;;;;;5042299;28;20207;-75
2023/03/20 02:16:06;;;;;;;23.05;20.65;;;8.80;99.90;;;;;;5048114;28;20230;-78
2023/03/20 02:18:34;;;;;;;20.65;18.48;;;8.80;99.90;;;;;;5043942;28;20222;-79
2023/03/20 02:21:52;;;;;;;18.83;16.92;;;8.80;99.90;;;;;;5049218;28;20205;-78
2023/03/20 02:25:14;;;;;;;17.63;15.93;;;8.70;99.90;;;;;;5007812;28;20273;-77
2023/03/20 02:27:50;;;;;;;24.88;21.83;;;8.70;99.90;;;;;;5007572;28;20212;-78
2023/03/20 02:30:55;;;;;;;21.10;19.00;;;8.70;99.90;;;;;;5044115;28;20231;-76
2023/03/20 02:33:50;;;;;;;19.85;17.75;;;8.80;99.90;;;;;;5044276;28;20256;-77
2023/03/20 02:36:48;;;;;;;22.45;18.85;;;8.80;99.90;;;;;;5044084;28;20623;-76
2023/03/20 02:39:45;;;;;;;19.52;17.42;;;8.80;99.90;;;;;;5045636;28;20306;-76
2023/03/20 02:42:18;;;;;;;19.13;17.17;;;8.80;99.90;;;;;;5042353;28;20218;-77
2023/03/20 02:44:53;;;;;;;18.23;16.33;;;8.80;99.90;;;;;;5045440;28;20207;-79
2023/03/20 02:47:25;;;;;;;17.63;15.75;;;8.90;99.90;;;;;;5045074;28;20226;-78
2023/03/20 02:50:03;;;;;;;19.33;17.30;;;8.90;99.90;;;;;;5045059;28;20199;-78
2023/03/20 02:52:37;;;;;;;17.88;16.08;;;8.90;99.90;;;;;;5043015;28;20313;-79
2023/03/20 02:55:14;;;;;;;21.67;16.95;;;8.90;99.90;;;;;;5039776;28;20195;-77
2023/03/20 02:57:50;;;;;;;17.75;15.93;;;8.90;99.90;;;;;;5041551;28;20282;-79
2023/03/20 03:00:25;;;;;;;17.88;16.08;;;8.90;99.90;;;;;;5038680;28;20781;-79
2023/03/20 03:03:00;;;;;;;16.13;14.52;;;8.90;99.90;;;;;;5040780;28;20294;-78
2023/03/20 03:05:32;;;;;;;19.92;17.83;;;8.80;99.90;;;;;;5040143;28;20217;-77
2023/03/20 03:08:02;;;;;;;19.17;17.17;;;8.80;99.90;;;;;;5041053;28;20230;-76
2023/03/20 03:10:34;;;;;;;16.42;14.82;;;8.80;99.90;;;;;;5041812;28;20809;-78
2023/03/20 03:13:03;;;;;;;18.00;16.02;;;8.80;99.90;;;;;;5044261;28;20574;-80
2023/03/20 03:15:34;;;;;;;18.38;16.48;;;8.70;99.90;;;;;;5045373;28;20269;-79
2023/03/20 03:18:05;;;;;;;17.85;15.95;;;8.70;99.90;;;;;;5043885;28;20978;-77
2023/03/20 03:20:34;;;;;;;19.15;17.25;;;8.60;99.90;;;;;;5047556;28;20215;-77
2023/03/20 03:23:02;;;;;;;19.88;17.88;;;8.60;99.90;;;;;;5042088;28;20206;-77
2023/03/20 03:25:34;;;;;;;17.75;15.95;;;8.50;99.90;;;;;;5044727;28;20268;-79
2023/03/20 03:28:07;;;;;;;19.02;17.13;;;8.50;99.90;;;;;;5039466;28;20302;-77
2023/03/20 03:30:38;;;;;;;18.50;16.60;;;8.40;99.90;;;;;;5044086;28;20696;-76
2023/03/20 03:33:19;;;;;;;18.70;16.80;;;8.40;99.90;;;;;;5048279;28;20210;-78
2023/03/20 03:35:46;;;;;;;16.67;14.98;;;8.40;99.90;;;;;;5043844;28;20232;-78
2023/03/20 03:38:26;;;;;;;17.02;15.23;;;8.40;99.90;;;;;;5044251;28;20223;-78
2023/03/20 03:41:07;;;;;;;16.90;15.15;;;8.50;99.90;;;;;;5055603;28;20212;-78
2023/03/20 03:43:39;;;;;;;17.33;15.60;;;8.50;99.90;;;;;;5041190;28;20222;-77
2023/03/20 03:46:12;;;;;;;18.65;16.70;;;8.50;99.90;;;;;;5047128;28;20679;-78
2023/03/20 03:48:45;;;;;;;18.15;16.35;;;8.50;99.90;;;;;;5045290;28;20654;-80
2023/03/20 03:51:16;;;;;;;17.25;15.48;;;8.40;99.90;;;;;;5040143;28;20899;-77
2023/03/20 03:53:49;;;;;;;17.75;15.98;;;8.40;99.90;;;;;;5043732;28;20204;-76
2023/03/20 03:56:23;;;;;;;18.10;16.27;;;8.40;99.90;;;;;;5045834;28;20230;-77
2023/03/20 03:58:55;;;;;;;18.25;16.33;;;8.30;99.90;;;;;;5044215;28;20285;-79
2023/03/20 04:01:24;;;;;;;17.90;16.10;;;8.30;99.90;;;;;;5047369;28;20245;-77
2023/03/20 04:03:56;;;;;;;18.02;16.23;;;8.20;99.90;;;;;;5042543;28;20207;-76
2023/03/20 04:06:25;;;;;;;18.40;16.50;;;8.20;99.90;;;;;;5045682;28;20230;-76
2023/03/20 04:08:52;;;;;;;17.65;15.85;;;8.20;99.90;;;;;;5043228;28;20997;-75
2023/03/20 04:11:23;;;;;;;18.83;16.92;;;8.10;99.90;;;;;;5046640;28;20625;-75
2023/03/20 04:13:51;;;;;;;18.90;16.98;;;8.10;99.90;;;;;;5046277;28;20242;-77
2023/03/20 04:16:21;;;;;;;18.42;16.50;;;8.10;99.90;;;;;;5040443;28;20234;-77
2023/03/20 04:18:48;;;;;;;18.92;16.92;;;8.10;99.90;;;;;;5045538;28;20257;-76
2023/03/20 04:21:15;;;;;;;18.08;16.15;;;8.10;99.90;;;;;;5043273;28;20223;-76
2023/03/20 04:23:43;;;;;;;18.48;16.42;;;8.10;99.90;;;;;;5044641;28;20268;-77
2023/03/20 04:26:10;;;;;;;17.92;16.02;;;8.10;99.90;;;;;;5041152;28;20203;-78
2023/03/20 04:28:38;;;;;;;18.50;16.60;;;8.10;99.90;;;;;;5046572;28;20229;-77
2023/03/20 04:31:06;;;;;;;17.38;15.57;;;8.10;99.90;;;;;;5044354;28;20630;-76
2023/03/20 04:33:33;;;;;;;16.73;15.02;;;8.10;99.90;;;;;;5043957;28;20218;-77
2023/03/20 04:36:00;;;;;;;17.27;15.40;;;8.10;99.90;;;;;;5044248;28;20306;-78
2023/03/20 04:38:27;;;;;;;17.95;16.15;;;8.10;99.90;;;;;;5044570;28;20248;-84
2023/03/20 04:40:54;;;;;;;17.80;16.10;;;8.10;99.90;;;;;;5056071;28;20315;-76
2023/03/20 04:43:20;;;;;;;17.02;15.40;;;8.10;99.90;;;;;;5038921;28;20250;-76
2023/03/20 04:45:49;;;;;;;18.15;16.35;;;8.10;99.90;;;;;;5040172;28;20239;-78
2023/03/20 04:48:16;;;;;;;17.30;15.60;;;8.10;99.90;;;;;;5042646;28;20215;-76
2023/03/20 04:50:45;;;;;;;19.52;17.60;;;8.10;99.90;;;;;;5046303;28;20707;-76
2023/03/20 04:53:12;;;;;;;17.58;15.85;;;8.10;99.90;;;;;;5043697;28;20295;-76
2023/03/20 04:55:39;;;;;;;17.02;15.32;;;8.10;99.90;;;;;;5041970;28;20303;-76
2023/03/20 04:58:06;;;;;;;16.17;14.48;;;8.10;99.90;;;;;;5040531;28;20254;-77
2023/03/20 05:00:33;;;;;;;16.40;14.65;;;8.10;99.90;;;;;;5037718;28;20625;-77
2023/03/20 05:03:02;;;;;;;15.88;14.32;;;8.10;99.90;;;;;;5037025;28;20230;-76
2023/03/20 05:05:29;;;;;;;17.48;15.73;;;8.10;99.90;;;;;;5043480;28;20613;-77
2023/03/20 05:07:56;;;;;;;16.42;14.80;;;8.10;99.90;;;;;;5045410;28;20223;-78
2023/03/20 05:10:23;;;;;;;16.33;14.73;;;8.10;99.90;;;;;;5042652;28;20227;-79
2023/03/20 05:12:50;;;;;;;17.38;15.68;;;8.10;99.90;;;;;;5041607;28;20220;-77
2023/03/20 05:15:17;;;;;;;18.05;16.20;;;8.10;99.90;;;;;;5041141;28;20249;-77
2023/03/20 05:17:44;;;;;;;18.20;16.45;;;8.10;99.90;;;;;;5041731;28;20748;-77
2023/03/20 05:20:13;;;;;;;18.67;16.77;;;8.10;99.90;;;;;;5039546;28;20276;-76
2023/03/20 05:22:40;;;;;;;17.35;15.65;;;8.10;99.90;;;;;;5042425;28;20203;-76
2023/03/20 05:25:07;;;;;;;18.55;16.65;;;8.10;99.90;;;;;;5043514;28;20258;-75
2023/03/20 05:27:34;;;;;;;19.00;17.05;;;8.10;99.90;;;;;;5037585;28;20250;-77
2023/03/20 05:30:01;;;;;;;18.98;16.95;;;8.00;99.90;;;;;;5042362;28;20191;-77
2023/03/20 05:32:28;;;;;;;19.30;17.30;;;8.00;99.90;;;;;;5041812;28;20198;-77
2023/03/20 05:34:55;;;;;;;18.23;16.33;;;7.90;99.90;;;;;;5036467;28;20207;-77
2023/03/20 05:37:23;;;;;;;19.63;17.63;;;7.80;99.90;;;;;;5040931;28;20681;-79
2023/03/20 05:39:50;;;;;;;19.60;17.55;;;7.80;99.90;;;;;;5047216;28;20797;-78
2023/03/20 05:42:17;;;;;;;18.90;17.00;;;7.80;99.90;;;;;;5037841;28;20677;-77
2023/03/20 05:44:44;;;;;;;18.58;16.63;;;7.80;99.90;;;;;;5037943;28;20207;-76
2023/03/20 05:47:11;;;;;;;18.98;16.98;;;7.70;99.90;;;;;;5035658;28;20199;-76
2023/03/20 05:49:38;;;;;;;17.58;15.77;;;7.70;99.90;;;;;;5035308;28;20234;-76
2023/03/20 05:52:05;;;;;;;17.55;15.82;;;7.70;99.90;;;;;;5041803;28;20257;-77
2023/03/20 05:54:33;;;;;;;19.48;17.52;;;7.70;99.90;;;;;;5044462;28;20739;-78
2023/03/20 05:57:00;;;;;;;20.52;17.27;;;7.70;99.90;;;;;;5042404;28;20242;-77
2023/03/20 05:59:27;;;;;;;19.67;17.55;;;7.70;99.90;;;;;;5038739;28;20277;-77
2023/03/20 06:01:54;;;;;;;19.77;17.77;;;7.80;99.90;;;;;;5035746;28;20742;-77
2023/03/20 06:04:21;;;;;;;19.58;17.58;;;7.80;99.90;;;;;;5038948;28;20199;-78
2023/03/20 06:06:48;;;;;;;19.15;17.15;;;7.80;99.90;;;;;;5037257;28;20302;-77
2023/03/20 06:09:15;;;;;;;18.77;16.88;;;7.80;99.90;;;;;;5039486;28;20300;-78
2023/03/20 06:11:43;;;;;;;18.73;16.83;;;7.80;99.90;;;;;;5036903;28;20665;-77
2023/03/20 06:14:10;;;;;;;18.10;16.23;;;7.90;99.90;;;;;;5042724;28;20736;-77
2023/03/20 06:16:37;;;;;;;19.33;17.27;;;7.90;99.90;;;;;;5037550;28;20718;-78
2023/03/20 06:19:04;;;;;;;18.90;17.02;;;7.90;99.90;;;;;;5040756;28;20226;-77
2023/03/20 06:21:31;;;;;;;18.08;16.15;;;8.00;99.90;;;;;;5037859;28;20341;-80
2023/03/20 06:23:58;;;;;;;19.92;17.92;;;8.00;99.90;;;;;;5039166;28;20727;-75
2023/03/20 06:26:26;;;;;;;19.98;17.98;;;8.10;99.90;;;;;;5040321;28;20198;-78
2023/03/20 06:28:54;;;;;;;20.30;18.02;;;8.20;99.90;;;;;;5038160;28;20226;-79
2023/03/20 06:31:22;;;;;;;18.85;17.05;;;8.30;99.90;;;;;;5040240;28;20784;-76
2023/03/20 06:33:49;;;;;;;19.73;17.70;;;8.40;99.90;;;;;;5040753;28;20207;-77
2023/03/20 06:36:16;;;;;;;19.00;17.20;;;8.80;99.90;;;;;;5043369;28;20207;-79
2023/03/20 06:38:43;;;;;;;18.90;16.98;;;9.10;99.90;;;;;;5050000;28;20240;-77
2023/03/20 06:41:10;;;;;;;18.65;16.83;;;9.50;99.90;;;;;;5040256;28;20725;-77
2023/03/20 06:43:38;;;;;;;18.60;16.70;;;9.80;99.90;;;;;;5040350;28;20581;-79
2023/03/20 06:46:07;;;;;;;20.60;18.50;;;10.10;99.90;;;;;;5039137;28;20301;-77
2023/03/20 06:48:34;;;;;;;19.52;17.63;;;10.30;99.90;;;;;;5036854;28;20308;-77
2023/03/20 06:51:01;;;;;;;23.08;20.80;;;10.60;99.90;;;;;;5039882;28;20330;-78
2023/03/20 06:53:28;;;;;;;23.90;21.42;;;10.90;99.90;;;;;;5035296;28;20230;-77
2023/03/20 06:55:55;;;;;;;22.17;19.88;;;11.00;99.90;;;;;;5035901;28;20230;-79
2023/03/20 06:58:21;;;;;;;23.67;21.17;;;11.10;99.90;;;;;;5036075;28;20254;-78
2023/03/20 07:00:49;;;;;;;24.88;22.38;;;11.20;99.90;;;;;;5044234;28;20309;-78
2023/03/20 07:03:17;;;;;;;23.13;20.90;;;11.40;99.90;;;;;;5041974;28;20199;-76
2023/03/20 07:05:44;;;;;;;23.05;20.75;;;11.60;99.90;;;;;;5042681;28;20290;-74
2023/03/20 07:08:11;;;;;;;22.73;20.42;;;11.70;99.90;;;;;;5039278;28;20227;-74
2023/03/20 07:10:38;;;;;;;22.80;20.13;;;11.90;99.90;;;;;;5038703;28;20268;-78
2023/03/20 07:13:05;;;;;;;21.05;18.98;;;12.20;99.90;;;;;;5041776;28;20729;-78
2023/03/20 07:15:32;;;;;;;21.30;19.17;;;12.40;99.90;;;;;;5034891;28;20253;-77
2023/03/20 07:17:59;;;;;;;22.02;19.80;;;12.80;99.90;;;;;;5040878;28;20223;-77
2023/03/20 07:20:28;;;;;;;22.92;20.63;;;13.00;99.90;;;;;;5040054;28;20968;-76
2023/03/20 07:22:55;;;;;;;23.70;21.30;;;13.30;99.90;;;;;;5036339;28;20493;-76
2023/03/20 07:25:22;;;;;;;21.65;19.35;;;13.40;99.90;;;;;;5034580;28;20283;-77
2023/03/20 07:27:50;;;;;;;23.25;20.95;;;13.50;99.90;;;;;;5037441;28;20233;-76
2023/03/20 07:30:18;;;;;;;22.50;20.33;;;13.70;99.90;;;;;;5036005;28;20223;-76
2023/03/20 07:32:45;;;;;;;23.10;20.80;;;13.90;99.90;;;;;;5037357;28;20206;-81
2023/03/20 07:35:12;;;;;;;20.73;18.65;;;14.20;99.90;;;;;;5042477;28;20226;-80
2023/03/20 07:37:41;;;;;;;23.77;21.40;;;14.20;99.90;;;;;;5049524;28;20261;-75
2023/03/20 07:40:09;;;;;;;22.13;19.92;;;14.30;99.90;;;;;;5033995;28;20870;-75
2023/03/20 07:42:36;;;;;;;20.95;18.90;;;14.40;99.90;;;;;;5038191;28;20215;-76
2023/03/20 07:45:03;;;;;;;22.33;20.13;;;14.30;99.90;;;;;;5040314;28;20231;-76
2023/03/20 07:47:30;;;;;;;22.25;19.98;;;14.40;99.90;;;;;;5037105;28;20262;-76
2023/03/20 07:49:57;;;;;;;21.05;18.88;;;14.50;99.90;;;;;;5039147;28;20884;-76
2023/03/20 07:52:24;;;;;;;23.45;20.70;;;14.90;99.90;;;;;;5038362;28;20225;-75
2023/03/20 07:54:52;;;;;;;21.85;19.70;;;15.00;99.90;;;;;;5039421;28;20269;-76
2023/03/20 07:57:19;;;;;;;20.98;18.58;;;15.10;99.90;;;;;;5035609;28;20203;-78
2023/03/20 07:59:47;;;;;;;20.95;18.90;;;15.10;99.90;;;;;;5031399;28;20226;-77
2023/03/20 08:02:15;;;;;;;21.17;19.15;;;15.40;99.90;;;;;;5033958;28;20737;-76
2023/03/20 08:04:42;;;;;;;21.90;19.80;;;15.40;99.90;;;;;;5035882;28;20191;-77
2023/03/20 08:07:10;;;;;;;20.95;18.85;;;15.20;99.90;;;;;;5031572;28;20771;-78
2023/03/20 08:09:37;;;;;;;21.23;19.02;;;14.90;99.90;;;;;;5034881;28;20812;-75
2023/03/20 08:12:06;;;;;;;17.90;16.17;;;15.00;99.90;;;;;;5034282;28;20204;-74
2023/03/20 08:14:33;;;;;;;20.55;18.55;;;15.40;99.90;;;;;;5035651;28;20286;-75
2023/03/20 08:17:00;;;;;;;22.02;19.85;;;15.80;99.90;;;;;;5037431;28;20681;-75
2023/03/20 08:19:27;;;;;;;21.38;19.35;;;15.90;99.90;;;;;;5036271;28;20277;-75
2023/03/20 08:21:54;;;;;;;20.83;18.73;;;16.00;99.90;;;;;;5036115;28;20218;-76
2023/03/20 08:24:21;;;;;;;23.13;20.55;;;16.30;99.90;;;;;;5031570;28;20214;-75
2023/03/20 08:26:48;;;;;;;22.52;20.23;;;16.50;99.90;;;;;;5034151;28;20234;-75
2023/03/20 08:29:18;;;;;;;19.92;17.52;;;16.50;99.90;;;;;;5037419;28;20223;-79
2023/03/20 08:31:45;;;;;;;19.88;17.95;;;16.60;99.90;;;;;;5037707;28;20199;-77
2023/03/20 08:34:12;;;;;;;20.90;18.73;;;17.00;99.90;;;;;;5049231;28;20523;-77
2023/03/20 08:36:39;;;;;;;20.45;18.42;;;16.90;99.90;;;;;;5042115;28;20222;-75
2023/03/20 08:39:07;;;;;;;19.95;17.75;;;17.00;99.90;;;;;;5034775;28;20241;-77
2023/03/20 08:41:34;;;;;;;20.13;18.23;;;17.00;99.90;;;;;;5032437;28;20223;-76
2023/03/20 08:44:01;;;;;;;20.95;18.85;;;17.20;99.90;;;;;;5033179;28;20295;-77
2023/03/20 08:46:30;;;;;;;25.10;20.58;;;17.10;99.90;;;;;;5034668;28;20198;-79
2023/03/20 08:48:59;;;;;;;21.05;19.02;;;16.90;99.90;;;;;;5032209;28;20311;-79
2023/03/20 08:51:27;;;;;;;19.98;18.08;;;17.20;99.90;;;;;;5030735;28;20276;-78
2023/03/20 08:53:54;;;;;;;18.60;16.77;;;17.30;99.90;;;;;;5031063;28;20773;-77
2023/03/20 08:56:21;;;;;;;20.20;18.30;;;17.70;99.90;;;;;;5037711;28;20669;-77
2023/03/20 08:58:48;;;;;;;23.17;19.85;;;18.00;99.90;;;;;;5034608;28;20960;-77
2023/03/20 09:01:15;;;;;;;24.45;22.05;;;18.10;99.90;;;;;;5035009;28;20744;-77
2023/03/20 09:03:43;;;;;;;22.15;19.77;;;17.80;99.90;;;;;;5029144;28;20258;-77
2023/03/20 09:06:11;;;;;;;20.30;18.27;;;17.30;99.90;;;;;;5033781;28;20734;-76
2023/03/20 09:08:38;;;;;;;20.77;18.77;;;17.10;99.90;;;;;;5037327;28;20276;-77
2023/03/20 09:11:06;;;;;;;23.35;21.08;;;17.10;99.90;;;;;;5034841;28;20337;-78
2023/03/20 09:13:33;;;;;;;22.52;20.23;;;17.20;99.90;;;;;;5028877;28;20234;-78
2023/03/20 09:16:00;;;;;;;23.92;21.35;;;17.20;99.90;;;;;;5033024;28;20288;-77
2023/03/20 09:18:27;;;;;;;22.95;20.55;;;17.00;99.90;;;;;;5036099;28;20218;-74
2023/03/20 09:20:56;;;;;;;19.60;17.77;;;16.90;99.90;;;;;;5024602;28;20199;-79
2023/03/20 09:23:23;;;;;;;21.85;19.75;;;16.90;99.90;;;;;;5029032;28;20212;-78
2023/03/20 09:25:50;;;;;;;20.73;18.63;;;17.10;99.90;;;;;;5030780;28;21143;-77
2023/03/20 09:28:17;;;;;;;20.58;18.48;;;17.30;99.90;;;;;;5032847;28;20219;-75
2023/03/20 09:30:44;;;;;;;20.35;18.42;;;17.60;99.90;;;;;;5026818;28;20289;-75
2023/03/20 09:33:13;;;;;;;20.92;18.83;;;17.70;99.90;;;;;;5037091;28;20310;-77
2023/03/20 09:35:40;;;;;;;21.70;19.60;;;17.70;99.90;;;;;;5027972;28;20202;-78
2023/03/20 09:38:08;;;;;;;20.83;18.85;;;17.50;99.90;;;;;;5025260;28;20215;-78
2023/03/20 09:40:50;;;;;;;18.83;16.92;;;17.60;99.90;;;;;;5027825;28;20254;-76
2023/03/20 09:43:26;;;;;;;23.10;20.90;;;17.70;99.90;;;;;;5034155;28;20778;-77
2023/03/20 09:46:02;;;;;;;20.60;18.45;;;17.50;99.90;;;;;;5032208;28;20823;-76
2023/03/20 09:48:34;;;;;;;20.58;18.38;;;17.50;99.90;;;;;;5031618;28;20219;-76
2023/03/20 09:51:08;;;;;;;27.67;22.02;;;17.50;99.90;;;;;;5028586;28;21457;-75
2023/03/20 09:53:40;;;;;;;21.88;19.77;;;17.40;99.90;;;;;;5030068;28;20278;-76
2023/03/20 09:56:16;;;;;;;23.70;21.40;;;17.50;99.90;;;;;;5026891;28;20810;-76
2023/03/20 09:58:53;;;;;;;22.80;20.40;;;17.10;99.90;;;;;;5030312;28;20337;-78
2023/03/20 10:01:23;;;;;;;22.58;20.27;;;17.00;99.90;;;;;;5031759;28;20257;-76
2023/03/20 10:03:54;;;;;;;22.63;20.27;;;17.00;99.90;;;;;;5034246;28;20669;-77
2023/03/20 10:06:21;;;;;;;25.02;22.58;;;17.20;99.90;;;;;;5032379;28;20195;-76
2023/03/20 10:08:50;;;;;;;25.08;22.58;;;17.20;99.90;;;;;;5032129;28;21075;-76
2023/03/20 10:11:43;;;;;;;24.92;22.42;;;17.30;99.90;;;;;;5031242;28;20210;-77
2023/03/20 10:14:21;;;;;;;20.85;18.95;;;17.60;99.90;;;;;;5032175;28;20285;-77
2023/03/20 10:17:08;;;;;;;26.30;23.58;;;18.00;99.90;;;;;;5030287;28;20199;-78
2023/03/20 10:19:42;;;;;;;25.02;22.63;;;18.00;99.90;;;;;;5029692;28;20225;-76
2023/03/20 10:22:17;;;;;;;23.63;21.13;;;17.70;99.90;;;;;;5029031;28;20735;-74
2023/03/20 10:24:52;;;;;;;21.35;19.35;;;17.30;99.90;;;;;;5034740;28;20230;-75
2023/03/20 10:27:23;;;;;;;26.58;23.88;;;16.90;99.90;;;;;;5029424;28;20285;-77
2023/03/20 10:30:00;;;;;;;25.42;22.63;;;16.60;99.90;;;;;;5035972;28;20211;-77
2023/03/20 10:32:34;;;;;;;23.33;21.00;;;16.40;99.90;;;;;;5030598;28;20222;-76
2023/03/20 10:35:15;;;;;;;19.55;17.65;;;16.20;99.90;;;;;;5033161;28;20216;-76
2023/03/20 10:38:00;;;;;;;21.00;18.83;;;16.60;99.90;;;;;;5025019;28;20299;-76
2023/03/20 10:40:34;;;;;;;19.40;17.50;;;16.90;99.90;;;;;;5031092;28;20230;-76
2023/03/20 10:43:04;;;;;;;22.20;19.90;;;17.30;99.90;;;;;;5038634;28;20226;-75
2023/03/20 10:45:41;;;;;;;23.63;21.45;;;17.60;99.90;;;;;;5034844;28;20208;-78
2023/03/20 10:48:16;;;;;;;18.80;16.90;;;17.90;99.90;;;;;;5036625;28;21312;-81
2023/03/20 10:50:47;;;;;;;23.40;21.13;;;18.10;99.90;;;;;;5035054;28;20238;-78
2023/03/20 10:53:25;;;;;;;22.35;20.00;;;18.60;99.90;;;;;;5036251;28;20198;-79
2023/03/20 10:55:57;;;;;;;19.08;17.15;;;18.90;99.90;;;;;;5038696;28;20205;-76
2023/03/20 10:58:26;;;;;;;24.67;22.17;;;18.70;99.90;;;;;;5032163;28;20223;-75
2023/03/20 11:00:55;;;;;;;20.75;18.63;;;18.70;99.90;;;;;;5033635;28;20778;-78
2023/03/20 11:03:25;;;;;;;22.67;20.48;;;18.70;99.90;;;;;;5031513;28;20230;-76
2023/03/20 11:05:56;;;;;;;22.20;20.08;;;18.70;99.90;;;;;;5036934;28;20614;-77
2023/03/20 11:08:25;;;;;;;22.05;19.85;;;18.50;99.90;;;;;;5037346;28;20314;-76
2023/03/20 11:11:01;;;;;;;20.83;18.92;;;18.80;99.90;;;;;;5032761;28;20211;-75
2023/03/20 11:13:32;;;;;;;22.30;20.00;;;18.80;99.90;;;;;;5033644;28;20289;-76
2023/03/20 11:16:10;;;;;;;22.25;20.02;;;18.60;99.90;;;;;;5033288;28;20227;-76
2023/03/20 11:18:38;;;;;;;20.67;18.55;;;18.60;99.90;;;;;;5031118;28;20231;-77
2023/03/20 11:21:08;;;;;;;21.70;19.50;;;18.60;99.90;;;;;;5035267;28;20829;-77
2023/03/20 11:23:35;;;;;;;21.92;19.83;;;18.30;99.90;;;;;;5033499;28;20639;-78
2023/03/20 11:26:06;;;;;;;22.05;19.85;;;18.30;99.90;;;;;;5034984;28;20279;-76
2023/03/20 11:28:35;;;;;;;21.60;18.98;;;18.50;99.90;;;;;;5041565;28;20270;-77
2023/03/20 11:31:05;;;;;;;22.23;20.15;;;18.50;99.90;;;;;;5037466;28;20340;-76
2023/03/20 11:33:36;;;;;;;23.25;20.88;;;18.50;99.90;;;;;;5028357;28;20291;-78
2023/03/20 11:36:11;;;;;;;20.88;18.27;;;18.50;99.90;;;;;;5031377;28;20206;-78
2023/03/20 11:38:44;;;;;;;20.33;18.33;;;18.40;99.90;;;;;;5031566;28;20246;-76
2023/03/20 11:41:18;;;;;;;19.65;17.77;;;18.50;99.90;;;;;;5031751;28;20206;-76
2023/03/20 11:43:45;;;;;;;21.13;18.90;;;18.50;99.90;;;;;;5032416;28;20332;-79
2023/03/20 11:46:13;;;;;;;21.27;18.77;;;18.50;99.90;;;;;;5034957;28;21372;-77
2023/03/20 11:48:43;;;;;;;19.13;17.23;;;18.50;99.90;;;;;;5035360;28;20224;-76
2023/03/20 11:51:13;;;;;;;22.00;19.85;;;18.00;99.90;;;;;;5033608;28;20206;-77
2023/03/20 11:53:51;;;;;;;22.23;20.00;;;18.00;99.90;;;;;;5030832;28;20273;-74
2023/03/20 11:56:23;;;;;;;22.45;20.13;;;18.10;99.90;;;;;;5031463;28;20271;-76
2023/03/20 11:58:56;;;;;;;24.27;21.85;;;18.20;99.90;;;;;;5032025;28;20227;-81
2023/03/20 12:01:24;;;;;;;23.33;20.85;;;18.40;99.90;;;;;;5030387;28;20195;-75
2023/03/20 12:03:54;;;;;;;22.85;20.70;;;18.40;99.90;;;;;;5030673;28;20309;-77
2023/03/20 12:06:24;;;;;;;22.77;20.40;;;18.30;99.90;;;;;;5034244;28;20400;-76
2023/03/20 12:08:56;;;;;;;22.58;20.25;;;18.30;99.90;;;;;;5034435;28;20300;-76
2023/03/20 12:11:49;;;;;;;23.02;20.65;;;18.30;99.90;;;;;;5035126;28;20663;-75
2023/03/20 12:14:27;;;;;;;19.52;17.70;;;18.60;99.90;;;;;;5029968;28;20294;-76
2023/03/20 12:17:03;;;;;;;21.35;19.27;;;18.50;99.90;;;;;;5034260;28;20574;-78
2023/03/20 12:19:32;;;;;;;20.92;18.90;;;18.60;99.90;;;;;;5033980;28;20674;-77
2023/03/20 12:22:07;;;;;;;23.95;21.15;;;18.80;99.90;;;;;;5033473;28;20320;-77
2023/03/20 12:24:40;;;;;;;22.70;20.40;;;18.80;99.90;;;;;;5034100;28;20214;-78
2023/03/20 12:27:20;;;;;;;21.58;19.58;;;18.70;99.90;;;;;;5039187;28;20200;-79
2023/03/20 12:29:52;;;;;;;20.20;18.33;;;18.80;99.90;;;;;;5034814;28;20226;-78
2023/03/20 12:32:24;;;;;;;21.65;19.42;;;19.10;99.90;;;;;;5031363;28;20253;-74
2023/03/20 12:34:56;;;;;;;23.13;20.92;;;19.20;99.90;;;;;;5032616;28;20304;-75
2023/03/20 12:37:23;;;;;;;21.38;19.17;;;19.10;99.90;;;;;;5033804;28;20267;-75
2023/03/20 12:39:53;;;;;;;20.98;18.77;;;19.10;99.90;;;;;;5036087;28;20200;-78
2023/03/20 12:42:35;;;;;;;21.15;19.15;;;18.80;99.90;;;;;;5032114;28;20217;-76
2023/03/20 12:45:11;;;;;;;18.83;17.02;;;18.70;99.90;;;;;;5033744;28;20198;-78
2023/03/20 12:48:06;;;;;;;19.42;17.42;;;18.80;99.90;;;;;;5033019;28;20230;-76